createdAt,value
2019-05-30T00:02:07.399Z,14.77
2019-05-30T00:04:36.444Z,14.23
2019-05-30T00:07:05.292Z,15.00
2019-05-30T00:09:34.407Z,13.67
2019-05-30T00:12:03.305Z,13.90
2019-05-30T00:14:32.071Z,14.23
2019-05-30T00:17:01.012Z,12.57
2019-05-30T00:19:33.664Z,15.00
2019-05-30T00:22:00.827Z,11.30
2019-05-30T00:24:29.872Z,17.47
2019-05-30T00:26:58.654Z,12.07
2019-05-30T00:29:27.669Z,11.83
2019-05-30T00:31:57.472Z,13.20
2019-05-30T00:34:26.514Z,15.97
2019-05-30T00:36:55.682Z,12.67
2019-05-30T00:39:24.684Z,12.50
2019-05-30T00:41:53.529Z,13.33
2019-05-30T00:44:22.355Z,16.93
2019-05-30T00:46:51.207Z,13.10
2019-05-30T00:49:20.135Z,12.70
2019-05-30T00:51:48.903Z,11.77
2019-05-30T00:54:17.809Z,12.60
2019-05-30T00:56:46.772Z,13.30
2019-05-30T00:59:15.648Z,15.17
2019-05-30T01:01:44.411Z,12.57
2019-05-30T01:04:13.255Z,12.80
2019-05-30T01:06:42.222Z,10.87
2019-05-30T01:09:11.004Z,13.83
2019-05-30T01:11:39.808Z,10.93
2019-05-30T01:14:08.643Z,11.50
2019-05-30T01:16:37.460Z,11.37
2019-05-30T01:19:07.376Z,12.60
2019-05-30T01:21:36.263Z,12.10
2019-05-30T01:24:05.657Z,13.03
2019-05-30T01:26:34.713Z,16.70
2019-05-30T01:29:03.550Z,16.57
2019-05-30T01:31:32.393Z,19.47
2019-05-30T01:34:01.567Z,23.07
2019-05-30T01:36:30.520Z,19.30
2019-05-30T01:38:59.636Z,20.80
2019-05-30T01:41:28.507Z,15.30
2019-05-30T01:43:57.743Z,17.00
2019-05-30T01:46:26.597Z,18.10
2019-05-30T01:48:55.454Z,15.07
2019-05-30T01:51:24.338Z,12.23
2019-05-30T01:53:53.614Z,14.83
2019-05-30T01:56:22.445Z,15.93
2019-05-30T01:58:51.255Z,14.93
2019-05-30T02:01:24.933Z,15.57
2019-05-30T02:03:50.614Z,13.97
2019-05-30T02:06:19.426Z,14.60
2019-05-30T02:08:48.241Z,13.50
2019-05-30T02:11:17.100Z,13.53
2019-05-30T02:13:45.968Z,13.10
2019-05-30T02:16:14.797Z,10.97
2019-05-30T02:18:43.659Z,9.47
2019-05-30T02:21:12.468Z,10.77
2019-05-30T02:23:41.208Z,10.40
2019-05-30T02:26:10.547Z,9.23
2019-05-30T02:28:39.835Z,7.87
2019-05-30T02:31:09.659Z,8.90
2019-05-30T02:33:39.171Z,7.80
2019-05-30T02:36:10.232Z,7.93
2019-05-30T02:38:38.505Z,9.07
2019-05-30T02:41:08.105Z,5.87
2019-05-30T02:43:37.792Z,7.43
2019-05-30T02:46:07.977Z,6.73
2019-05-30T02:48:56.878Z,6.87
2019-05-30T02:51:08.453Z,6.80
2019-05-30T02:53:38.075Z,6.27
2019-05-30T02:56:07.884Z,5.03
2019-05-30T02:58:37.297Z,4.93
2019-05-30T03:01:07.130Z,5.37
2019-05-30T03:03:36.703Z,5.70
2019-05-30T03:06:06.894Z,5.93
2019-05-30T03:08:36.793Z,7.13
2019-05-30T03:11:09.321Z,5.23
2019-05-30T03:13:36.202Z,4.80
2019-05-30T03:16:06.853Z,4.93
2019-05-30T03:18:35.572Z,5.13
2019-05-30T03:21:05.802Z,5.23
2019-05-30T03:23:34.932Z,5.67
2019-05-30T03:26:04.845Z,4.47
2019-05-30T03:28:34.293Z,5.33
2019-05-30T03:31:05.894Z,5.60
2019-05-30T03:33:40.255Z,5.03
2019-05-30T03:36:09.042Z,7.67
2019-05-30T03:38:34.593Z,6.13
2019-05-30T03:41:04.724Z,6.00
2019-05-30T03:43:34.019Z,5.83
2019-05-30T03:46:04.066Z,6.80
2019-05-30T03:48:33.418Z,5.80
2019-05-30T03:51:04.046Z,6.33
2019-05-30T03:53:32.770Z,5.93
2019-05-30T03:56:06.637Z,5.47
2019-05-30T03:58:45.470Z,7.23
2019-05-30T04:01:19.089Z,6.13
2019-05-30T04:04:02.534Z,7.10
2019-05-30T04:06:33.681Z,5.43
2019-05-30T04:09:07.169Z,7.83
2019-05-30T04:11:43.298Z,7.27
2019-05-30T04:14:15.757Z,7.10
2019-05-30T04:16:44.768Z,7.63
2019-05-30T04:19:15.532Z,6.93
2019-05-30T04:21:46.372Z,7.23
2019-05-30T04:24:16.372Z,7.53
2019-05-30T04:26:45.348Z,8.53
2019-05-30T04:29:14.991Z,8.07
2019-05-30T04:31:44.666Z,9.07
2019-05-30T04:34:14.861Z,7.17
2019-05-30T04:36:44.088Z,8.90
2019-05-30T04:39:13.056Z,8.73
2019-05-30T04:41:42.298Z,9.10
2019-05-30T04:44:11.927Z,10.33
2019-05-30T04:46:41.544Z,9.33
2019-05-30T04:49:12.191Z,10.37
2019-05-30T04:51:41.063Z,10.30
2019-05-30T04:54:10.382Z,10.63
2019-05-30T04:56:40.050Z,11.13
2019-05-30T04:59:08.872Z,10.77
2019-05-30T05:01:37.743Z,15.00
2019-05-30T05:04:06.585Z,11.47
2019-05-30T05:06:35.324Z,12.47
2019-05-30T05:09:05.220Z,12.47
2019-05-30T05:11:34.013Z,12.13
2019-05-30T05:14:02.789Z,12.17
2019-05-30T05:16:35.953Z,12.40
2019-05-30T05:19:02.083Z,12.03
2019-05-30T05:21:30.903Z,14.80
2019-05-30T05:23:59.765Z,13.83
2019-05-30T05:26:28.613Z,14.03
2019-05-30T05:28:57.361Z,14.47
2019-05-30T05:31:26.199Z,14.63
2019-05-30T05:33:57.133Z,14.90
2019-05-30T05:43:29.974Z,14.87
2019-05-30T05:45:58.728Z,15.90
2019-05-30T05:48:28.722Z,15.93
2019-05-30T05:50:57.792Z,15.23
2019-05-30T05:53:26.527Z,16.57
2019-05-30T05:55:55.324Z,17.63
2019-05-30T05:58:26.194Z,15.50
2019-05-30T06:00:54.716Z,15.97
2019-05-30T06:03:24.273Z,17.07
2019-05-30T06:05:53.742Z,17.50
2019-05-30T06:08:23.724Z,16.80
2019-05-30T06:10:52.613Z,16.93
2019-05-30T06:13:22.774Z,17.40
2019-05-30T06:15:51.904Z,17.20
2019-05-30T06:18:20.671Z,17.03
2019-05-30T06:20:49.469Z,17.73
2019-05-30T06:23:19.437Z,19.40
2019-05-30T06:25:48.346Z,19.23
2019-05-30T06:28:17.960Z,16.57
2019-05-30T06:30:46.927Z,18.93
2019-05-30T06:33:15.692Z,18.97
2019-05-30T06:35:44.441Z,17.67
2019-05-30T06:38:13.195Z,18.37
2019-05-30T06:40:41.976Z,20.87
2019-05-30T06:43:10.763Z,19.37
2019-05-30T06:45:39.497Z,16.63
2019-05-30T06:48:08.271Z,18.63
2019-05-30T06:50:37.130Z,19.70
2019-05-30T06:53:08.142Z,20.93
2019-05-30T06:55:37.129Z,18.10
2019-05-30T06:58:05.951Z,19.30
2019-05-30T07:00:37.182Z,16.90
2019-05-30T07:03:06.101Z,17.37
2019-05-30T07:12:15.079Z,18.17
2019-05-30T07:14:43.838Z,20.00
2019-05-30T07:17:12.725Z,21.43
2019-05-30T07:19:41.518Z,20.07
2019-05-30T07:22:10.291Z,22.53
2019-05-30T07:24:39.110Z,20.10
2019-05-30T07:27:07.919Z,20.40
2019-05-30T07:29:36.833Z,23.20
2019-05-30T07:32:05.619Z,20.10
2019-05-30T07:34:34.383Z,19.57
2019-05-30T07:37:03.158Z,19.87
2019-05-30T07:39:35.087Z,21.00
2019-05-30T07:42:06.202Z,19.87
2019-05-30T07:44:33.603Z,20.43
2019-05-30T07:47:02.467Z,18.90
2019-05-30T07:49:32.379Z,20.50
2019-05-30T07:52:01.302Z,21.13
2019-05-30T07:54:30.959Z,18.90
2019-05-30T07:56:59.887Z,19.63
2019-05-30T07:59:28.779Z,17.80
2019-05-30T08:01:57.640Z,20.40
2019-05-30T08:04:27.433Z,20.70
2019-05-30T08:06:56.427Z,22.30
2019-05-30T08:09:26.825Z,21.93
2019-05-30T08:11:55.835Z,23.07
2019-05-30T08:14:24.641Z,19.97
2019-05-30T08:16:53.486Z,22.73
2019-05-30T08:19:22.402Z,24.40
2019-05-30T08:21:51.273Z,21.10
2019-05-30T08:24:20.157Z,22.20
2019-05-30T08:26:48.969Z,20.73
2019-05-30T08:29:17.796Z,19.53
2019-05-30T08:31:46.624Z,20.33
2019-05-30T08:34:15.367Z,25.43
2019-05-30T08:36:44.159Z,19.23
2019-05-30T08:39:12.990Z,20.20
2019-05-30T08:41:41.804Z,18.87
2019-05-30T08:44:10.591Z,19.30
2019-05-30T08:46:39.979Z,19.30
2019-05-30T08:49:08.904Z,20.93
2019-05-30T08:51:38.308Z,19.97
2019-05-30T08:54:07.279Z,20.07
2019-05-30T08:56:36.520Z,21.97
2019-05-30T08:59:05.402Z,20.53
2019-05-30T09:01:35.612Z,21.70
2019-05-30T09:04:04.548Z,22.03
2019-05-30T09:06:33.304Z,21.30
2019-05-30T09:09:02.157Z,23.13
2019-05-30T09:11:30.933Z,21.80
2019-05-30T09:13:59.705Z,24.07
2019-05-30T09:16:28.661Z,22.63
2019-05-30T09:18:57.584Z,19.97
2019-05-30T09:21:26.455Z,26.83
2019-05-30T09:23:58.917Z,22.20
2019-05-30T09:26:26.033Z,23.63
2019-05-30T09:28:54.915Z,24.17
2019-05-30T09:31:23.677Z,23.57
2019-05-30T09:33:52.445Z,23.63
2019-05-30T09:43:25.504Z,20.70
2019-05-30T09:45:54.383Z,25.70
2019-05-30T09:48:23.127Z,28.87
2019-05-30T09:50:51.884Z,25.80
2019-05-30T09:53:21.110Z,27.20
2019-05-30T09:55:51.537Z,24.17
2019-05-30T09:58:20.496Z,28.43
2019-05-30T10:00:50.420Z,28.97
2019-05-30T10:03:19.374Z,27.43
2019-05-30T10:05:48.641Z,27.77
2019-05-30T10:08:26.944Z,25.77
2019-05-30T10:10:55.805Z,24.70
2019-05-30T10:13:24.564Z,25.63
2019-05-30T10:15:53.438Z,26.47
2019-05-30T10:18:22.333Z,26.63
2019-05-30T10:20:51.921Z,25.67
2019-05-30T10:23:21.575Z,25.30
2019-05-30T10:25:51.226Z,21.20
2019-05-30T10:28:20.155Z,23.83
2019-05-30T10:30:53.652Z,20.37
2019-05-30T10:33:19.951Z,23.03
2019-05-30T10:35:49.140Z,21.13
2019-05-30T10:38:20.065Z,17.67
2019-05-30T10:40:49.275Z,17.63
2019-05-30T10:43:19.127Z,12.63
2019-05-30T10:45:49.115Z,12.47
2019-05-30T10:48:20.749Z,13.60
2019-05-30T10:50:48.802Z,11.10
2019-05-30T10:53:17.590Z,9.80
2019-05-30T10:55:46.951Z,8.77
2019-05-30T10:58:16.953Z,10.10
2019-05-30T11:00:53.331Z,9.40
2019-05-30T11:03:24.311Z,11.60
2019-05-30T11:06:20.910Z,12.90
2019-05-30T11:08:50.634Z,11.10
2019-05-30T11:11:19.580Z,11.80
2019-05-30T11:13:48.940Z,11.00
2019-05-30T11:16:17.820Z,12.00
2019-05-30T11:18:47.536Z,13.93
2019-05-30T11:21:17.075Z,12.97
2019-05-30T11:23:45.819Z,12.90
2019-05-30T11:26:14.606Z,16.67
2019-05-30T11:28:43.329Z,13.37
2019-05-30T11:31:12.067Z,15.13
2019-05-30T11:33:40.860Z,17.30
2019-05-30T11:36:09.587Z,14.93
2019-05-30T11:38:38.375Z,15.30
2019-05-30T11:41:07.206Z,16.90
2019-05-30T11:43:35.959Z,18.30
2019-05-30T11:46:04.783Z,18.77
2019-05-30T11:48:33.537Z,22.77
2019-05-30T11:51:02.371Z,23.50
2019-05-30T11:53:31.250Z,21.73
2019-05-30T11:56:00.473Z,21.80
2019-05-30T11:58:29.412Z,23.17
2019-05-30T12:00:58.414Z,22.90
2019-05-30T12:03:29.628Z,14.57
2019-05-30T12:05:58.695Z,13.30
2019-05-30T12:08:27.644Z,15.13
2019-05-30T12:10:57.156Z,15.73
2019-05-30T12:13:26.075Z,17.13
2019-05-30T12:15:55.410Z,22.30
2019-05-30T12:18:24.258Z,22.70
2019-05-30T12:20:53.614Z,21.73
2019-05-30T12:23:22.477Z,27.17
2019-05-30T12:25:51.991Z,28.43
2019-05-30T12:28:20.832Z,27.70
2019-05-30T12:30:56.791Z,27.90
2019-05-30T12:33:20.095Z,26.97
2019-05-30T12:35:48.924Z,28.47
2019-05-30T12:38:17.743Z,30.47
2019-05-30T12:40:46.515Z,25.57
2019-05-30T12:43:15.280Z,27.37
2019-05-30T12:45:44.167Z,26.43
2019-05-30T12:48:12.883Z,34.03
2019-05-30T12:50:41.679Z,35.03
2019-05-30T12:53:10.542Z,31.77
2019-05-30T12:55:39.296Z,26.33
2019-05-30T12:58:08.031Z,24.83
2019-05-30T13:00:37.009Z,27.93
2019-05-30T13:03:05.823Z,23.57
2019-05-30T13:05:34.568Z,23.77
2019-05-30T13:08:17.669Z,25.13
2019-05-30T13:10:33.806Z,24.87
2019-05-30T13:13:03.914Z,25.17
2019-05-30T13:15:32.911Z,23.33
2019-05-30T13:18:02.972Z,24.50
2019-05-30T13:20:31.969Z,23.40
2019-05-30T13:23:00.773Z,20.87
2019-05-30T13:25:29.498Z,20.67
2019-05-30T13:28:01.962Z,20.23
2019-05-30T13:30:28.826Z,22.27
2019-05-30T13:32:58.489Z,20.23
2019-05-30T13:35:27.391Z,18.93
2019-05-30T13:37:57.064Z,20.00
2019-05-30T13:40:26.015Z,17.70
2019-05-30T13:42:54.805Z,18.07
2019-05-30T13:45:23.531Z,16.33
2019-05-30T13:47:52.279Z,15.90
2019-05-30T13:50:21.113Z,13.77
2019-05-30T13:52:49.958Z,12.17
2019-05-30T13:55:18.867Z,12.37
2019-05-30T13:57:47.666Z,11.90
2019-05-30T14:00:16.441Z,14.13
2019-05-30T14:02:45.217Z,13.70
2019-05-30T14:05:14.023Z,10.47
2019-05-30T14:07:42.847Z,13.60
2019-05-30T14:10:11.575Z,10.33
2019-05-30T14:12:40.387Z,16.10
2019-05-30T14:15:10.461Z,10.77
2019-05-30T14:17:39.610Z,9.93
2019-05-30T14:20:09.071Z,12.10
2019-05-30T14:22:37.883Z,10.43
2019-05-30T14:25:07.521Z,9.47
2019-05-30T14:27:38.185Z,10.37
2019-05-30T14:30:06.974Z,13.07
2019-05-30T14:32:35.723Z,10.10
2019-05-30T14:35:04.621Z,10.50
2019-05-30T14:37:33.361Z,11.57
2019-05-30T14:40:02.669Z,8.43
2019-05-30T14:42:31.624Z,8.07
2019-05-30T14:45:00.466Z,9.97
2019-05-30T14:47:29.223Z,7.10
2019-05-30T14:49:57.979Z,6.70
2019-05-30T14:52:26.719Z,6.87
2019-05-30T14:54:55.470Z,7.80
2019-05-30T14:57:24.242Z,7.10
2019-05-30T14:59:52.992Z,8.20
2019-05-30T15:02:21.768Z,5.80
2019-05-30T15:04:50.547Z,5.07
2019-05-30T15:07:19.283Z,4.23
2019-05-30T15:09:48.033Z,6.43
2019-05-30T15:12:16.972Z,3.80
2019-05-30T15:14:45.720Z,4.70
2019-05-30T15:17:14.462Z,4.53
2019-05-30T15:19:43.243Z,3.90
2019-05-30T15:22:16.382Z,5.60
2019-05-30T15:24:42.444Z,6.13
2019-05-30T15:27:12.128Z,3.10
2019-05-30T15:29:41.020Z,3.00
2019-05-30T15:32:10.289Z,5.57
2019-05-30T15:34:39.227Z,4.17
2019-05-30T15:37:08.609Z,2.97
2019-05-30T15:39:37.599Z,2.67
2019-05-30T15:42:07.210Z,2.30
2019-05-30T15:44:36.070Z,2.40
2019-05-30T15:47:04.827Z,2.80
2019-05-30T15:49:33.543Z,3.33
2019-05-30T15:52:02.313Z,2.60
2019-05-30T15:54:31.059Z,2.77
2019-05-30T15:56:59.793Z,2.50
2019-05-30T15:59:28.645Z,2.53
2019-05-30T16:01:57.418Z,5.30
2019-05-30T16:04:26.187Z,2.10
2019-05-30T16:06:54.957Z,2.47
2019-05-30T16:09:23.775Z,2.80
2019-05-30T16:11:52.613Z,3.93
2019-05-30T16:14:21.614Z,3.20
2019-05-30T16:16:50.495Z,3.17
2019-05-30T16:19:23.352Z,4.47
2019-05-30T16:21:49.695Z,3.50
2019-05-30T16:24:18.556Z,2.90
2019-05-30T16:26:47.368Z,3.17
2019-05-30T16:29:16.108Z,2.87
2019-05-30T16:31:44.863Z,3.10
2019-05-30T16:34:13.937Z,4.13
2019-05-30T16:36:42.819Z,2.87
2019-05-30T16:39:11.591Z,3.03
2019-05-30T16:41:42.857Z,2.03
2019-05-30T16:44:10.855Z,3.20
2019-05-30T16:46:39.628Z,2.63
2019-05-30T16:49:08.356Z,2.47
2019-05-30T16:51:37.347Z,2.23
2019-05-30T16:54:06.055Z,2.57
2019-05-30T16:56:34.965Z,3.60
2019-05-30T16:59:03.840Z,2.10
2019-05-30T17:01:32.608Z,2.23
2019-05-30T17:04:01.332Z,2.60
2019-05-30T17:06:30.059Z,3.07
2019-05-30T17:08:58.819Z,2.53
2019-05-30T17:11:27.545Z,2.17
2019-05-30T17:13:56.275Z,2.83
2019-05-30T17:16:26.157Z,3.73
2019-05-30T17:18:55.047Z,3.43
2019-05-30T17:21:24.684Z,3.27
2019-05-30T17:23:53.598Z,4.13
2019-05-30T17:26:23.275Z,2.63
2019-05-30T17:28:52.160Z,3.37
2019-05-30T17:31:21.874Z,3.30
2019-05-30T17:33:50.735Z,3.93
2019-05-30T17:36:20.084Z,3.70
2019-05-30T17:38:49.006Z,4.30
2019-05-30T17:41:18.661Z,3.43
2019-05-30T17:43:47.558Z,4.03
2019-05-30T17:46:16.340Z,3.03
2019-05-30T17:48:45.079Z,3.77
2019-05-30T17:51:13.802Z,3.53
2019-05-30T17:53:42.591Z,3.80
2019-05-30T17:56:11.352Z,4.17
2019-05-30T17:58:40.087Z,6.27
2019-05-30T18:01:08.918Z,3.30
2019-05-30T18:03:37.663Z,5.93
2019-05-30T18:06:06.476Z,3.80
2019-05-30T18:08:35.358Z,7.30
2019-05-30T18:11:04.212Z,5.37
2019-05-30T18:13:32.955Z,4.90
2019-05-30T18:16:01.685Z,4.77
2019-05-30T18:18:31.399Z,5.43
2019-05-30T18:21:00.258Z,5.73
2019-05-30T18:23:29.691Z,7.80
2019-05-30T18:25:58.616Z,4.50
2019-05-30T18:28:27.792Z,4.87
2019-05-30T18:30:56.939Z,7.57
2019-05-30T18:33:26.118Z,6.37
2019-05-30T18:35:55.002Z,5.60
2019-05-30T18:38:24.269Z,7.40
2019-05-30T18:41:08.147Z,5.17
2019-05-30T18:43:24.680Z,7.70
2019-05-30T18:45:53.473Z,8.23
2019-05-30T18:48:23.264Z,6.40
2019-05-30T18:50:52.210Z,6.00
2019-05-30T18:53:20.940Z,6.63
2019-05-30T18:55:49.832Z,5.47
2019-05-30T18:58:18.692Z,5.67
2019-05-30T19:00:47.436Z,5.10
2019-05-30T19:03:16.191Z,8.33
2019-05-30T19:05:48.214Z,4.73
2019-05-30T19:08:15.391Z,3.80
2019-05-30T19:10:44.161Z,4.70
2019-05-30T19:13:12.887Z,10.00
2019-05-30T19:15:41.738Z,6.97
2019-05-30T19:18:10.482Z,8.50
2019-05-30T19:20:39.259Z,5.03
2019-05-30T19:23:08.020Z,8.93
2019-05-30T19:25:37.899Z,6.60
2019-05-30T19:28:06.751Z,9.90
2019-05-30T19:30:36.840Z,5.50
2019-05-30T19:33:05.993Z,9.63
2019-05-30T19:35:35.262Z,5.20
2019-05-30T19:38:04.342Z,6.97
2019-05-30T19:40:33.621Z,4.30
2019-05-30T19:43:02.504Z,7.60
2019-05-30T19:45:31.969Z,6.03
2019-05-30T19:48:00.831Z,8.47
2019-05-30T19:50:30.427Z,7.17
2019-05-30T19:52:59.359Z,7.80
2019-05-30T19:55:29.056Z,6.03
2019-05-30T19:57:58.010Z,5.33
2019-05-30T20:00:26.936Z,12.67
2019-05-30T20:02:55.671Z,11.10
2019-05-30T20:05:24.396Z,9.63
2019-05-30T20:07:53.196Z,6.07
2019-05-30T20:10:22.216Z,5.37
2019-05-30T20:12:50.948Z,6.67
2019-05-30T20:15:19.746Z,5.73
2019-05-30T20:17:48.555Z,6.67
2019-05-30T20:20:17.302Z,10.30
2019-05-30T20:22:46.074Z,5.17
2019-05-30T20:25:14.895Z,9.30
2019-05-30T20:27:43.664Z,7.77
2019-05-30T20:30:12.608Z,6.30
2019-05-30T20:32:41.440Z,6.20
2019-05-30T20:35:10.176Z,13.10
2019-05-30T20:37:38.944Z,7.87
2019-05-30T20:40:07.712Z,6.83
2019-05-30T20:42:36.772Z,7.70
2019-05-30T20:45:09.191Z,7.47
2019-05-30T20:47:38.468Z,12.90
2019-05-30T20:50:07.039Z,8.37
2019-05-30T20:52:39.912Z,9.80
2019-05-30T20:55:06.452Z,5.90
2019-05-30T20:57:36.171Z,9.33
2019-05-30T21:00:06.790Z,8.97
2019-05-30T21:02:36.563Z,7.03
2019-05-30T21:05:05.620Z,6.60
2019-05-30T21:07:35.765Z,7.13
2019-05-30T21:10:04.843Z,5.40
2019-05-30T21:12:39.311Z,6.17
2019-05-30T21:15:04.980Z,7.20
2019-05-30T21:17:33.744Z,7.53
2019-05-30T21:20:02.559Z,6.10
2019-05-30T21:22:31.311Z,6.33
2019-05-30T21:25:00.130Z,7.67
2019-05-30T21:27:28.959Z,6.23
2019-05-30T21:29:57.727Z,8.83
2019-05-30T21:32:26.471Z,7.57
2019-05-30T21:34:55.392Z,6.90
2019-05-30T21:37:24.175Z,8.70
2019-05-30T21:39:52.927Z,7.23
2019-05-30T21:42:21.642Z,7.50
2019-05-30T21:44:52.657Z,8.23
2019-05-30T21:47:20.956Z,6.17
2019-05-30T21:49:49.687Z,8.43
2019-05-30T21:52:18.467Z,10.67
2019-05-30T21:54:47.863Z,11.13
2019-05-30T21:57:16.711Z,8.87
2019-05-30T21:59:46.434Z,14.23
2019-05-30T22:02:15.386Z,9.53
2019-05-30T22:04:44.768Z,8.83
2019-05-30T22:07:13.531Z,10.57
2019-05-30T22:09:43.146Z,10.67
2019-05-30T22:12:12.108Z,8.33
2019-05-30T22:14:41.758Z,7.83
2019-05-30T22:17:10.568Z,7.90
2019-05-30T22:19:39.300Z,7.47
2019-05-30T22:22:08.043Z,6.70
2019-05-30T22:24:36.831Z,11.17
2019-05-30T22:27:05.581Z,7.37
2019-05-30T22:29:34.363Z,6.53
2019-05-30T22:32:03.115Z,5.43
2019-05-30T22:34:31.839Z,7.73
2019-05-30T22:37:00.595Z,6.40
2019-05-30T22:39:29.337Z,6.33
2019-05-30T22:41:58.080Z,5.50
2019-05-30T22:44:26.836Z,7.13
2019-05-30T22:46:56.921Z,4.03
2019-05-30T22:49:25.942Z,5.13
2019-05-30T22:51:54.676Z,5.43
2019-05-30T22:54:23.463Z,6.17
2019-05-30T22:56:53.485Z,5.00
2019-05-30T22:59:22.494Z,4.90
2019-05-30T23:01:52.334Z,4.17
2019-05-30T23:04:21.791Z,5.00
2019-05-30T23:06:50.607Z,6.53
2019-05-30T23:09:19.366Z,6.40
2019-05-30T23:11:48.134Z,4.10
2019-05-30T23:14:16.876Z,4.33
2019-05-30T23:16:46.125Z,4.67
2019-05-30T23:19:15.067Z,5.50
2019-05-30T23:21:43.802Z,6.37
2019-05-30T23:24:12.571Z,5.20
2019-05-30T23:26:41.310Z,4.30
2019-05-30T23:29:10.112Z,5.00
2019-05-30T23:31:38.889Z,4.07
2019-05-30T23:34:07.621Z,5.83
2019-05-30T23:36:36.332Z,4.90
2019-05-30T23:39:06.434Z,3.73
2019-05-30T23:41:35.233Z,3.50
2019-05-30T23:44:11.277Z,4.57
2019-05-30T23:46:34.442Z,3.87
2019-05-30T23:49:03.178Z,4.07
2019-05-30T23:51:31.919Z,7.80
2019-05-30T23:54:00.675Z,5.63
2019-05-30T23:56:29.407Z,3.87
2019-05-30T23:58:58.887Z,6.03
